Terminal Aerodrome Forecast
Issued by NWS

Home | Current Version | Previous Version | Text Only | Print | Product List | Glossary Off
Versions: 1 2 3 4 5 6 7 8 9 10 11 12 13 14 15 16 17 18 19 20 21 22 23 24 25 26 27

000
FTUS43 KABR 242029 AAA
TAFATY
TAF AMD
KATY 242029Z 2420/2518 03010KT P6SM OVC010
     FM242200 02014G23KT P6SM BKN035
     FM250200 03010KT 5SM BR SCT015
     FM250900 06007KT 3SM BR BKN003
     FM251100 06008KT 2SM BR BKN008
     FM251600 09009KT 6SM BR SCT015=

USA.gov is the U.S. government's official web portal to all federal, state and local government web resources and services.